Latest Weather Observations for Inglewood

IDQ60801

Issued at 9:05 pm EST Friday 25 July 2014 (issued every 30 minutes, with the page automatically refreshed every 10 minutes)

About weather observations | Map of weather stations | Latest weather observations for QLD | Other Formats
Station Details ID: 041097 Name: INGLEWOOD FOREST Lat: -28.34 Lon: 150.94 Height: 379.0 m
Data from the previous 72 hours. | See also: Recent months at Inglewood
Date/Time
EST
Temp
°C
App
Temp
°C
Dew
Point
Rel
Hum
%
Delta-T
°C
Wind Press
QNH
hPa
Press
MSL
hPa
Rain
since 9 am
mm
Dir
 
Spd
km/h
Gust
km/h
Spd
kts
Gust
kts
25/09:00pm - - - - - NNE 15 24 8 13 - - 0.0
25/08:30pm - - - - - NNE 13 24 7 13 - - 0.0
25/08:00pm - - - - - NNE 15 24 8 13 - - 0.0
25/07:30pm - - - - - NNE 11 17 6 9 - - 0.0
25/07:00pm - - - - - NNE 9 13 5 7 - - 0.0
25/06:30pm - - - - - NNE 9 11 5 6 - - 0.0
25/06:00pm - - - - - NNE 9 13 5 7 - - 0.0
25/05:30pm - - - - - NE 7 11 4 6 - - 0.0
25/05:00pm - - - - - NE 9 13 5 7 - - 0.0
25/04:30pm - - - - - NE 9 19 5 10 - - 0.0
25/04:00pm - - - - - NNE 13 20 7 11 - - 0.0
25/03:30pm - - - - - NNE 9 20 5 11 - - 0.0
25/03:00pm - - - - - NNW 13 20 7 11 - - 0.0
25/02:30pm - - - - - N 11 20 6 11 - - 0.0
25/02:00pm - - - - - NNE 11 17 6 9 - - 0.0
25/01:30pm - - - - - N 9 15 5 8 - - 0.0
25/01:00pm - - - - - NNE 9 19 5 10 - - 0.0
25/12:30pm - - - - - N 11 24 6 13 - - 0.0
25/12:00pm - - - - - NNW 13 22 7 12 - - 0.0
25/11:30am - - - - - NNW 13 22 7 12 - - 0.0
25/11:00am - - - - - NNW 15 24 8 13 - - 0.0
25/10:30am - - - - - N 11 20 6 11 - - 0.0
25/10:00am - - - - - N 13 26 7 14 - - 0.0
25/09:30am - - - - - NE 11 17 6 9 - - 0.0
25/09:00am - - - - - NE 13 22 7 12 - - 0.0
25/08:30am - - - - - NE 13 20 7 11 - - 0.0
25/08:00am - - - - - ENE 11 17 6 9 - - 0.0
25/07:30am - - - - - ENE 11 17 6 9 - - 0.0
25/07:00am - - - - - ENE 13 19 7 10 - - 0.0
25/06:30am - - - - - ENE 13 19 7 10 - - 0.0
25/06:00am - - - - - ENE 11 17 6 9 - - 0.0
25/05:30am - - - - - ENE 9 11 5 6 - - 0.0
25/05:00am - - - - - NE 13 19 7 10 - - 0.0
25/04:30am - - - - - NE 11 15 6 8 - - 0.0
25/04:00am - - - - - NE 11 19 6 10 - - 0.0
25/03:30am - - - - - NE 11 19 6 10 - - 0.0
25/03:00am - - - - - NNE 13 20 7 11 - - 0.0
25/02:30am - - - - - NE 11 17 6 9 - - 0.0
25/02:00am - - - - - NE 13 19 7 10 - - 0.0
25/01:30am - - - - - NE 13 19 7 10 - - 0.0
25/01:00am - - - - - NE 13 22 7 12 - - 0.0
25/12:30am - - - - - NNE 15 22 8 12 - - 0.0
25/12:00am - - - - - NE 15 22 8 12 - - 0.0
 
Date/Time
EST
Temp
°C
App
Temp
°C
Dew
Point
Rel
Hum
%
Delta-T
°C
Wind Press
QNH
hPa
Press
MSL
hPa
Rain
since 9 am
mm
Dir
 
Spd
km/h
Gust
km/h
Spd
kts
Gust
kts
24/11:30pm - - - - - NNE 15 24 8 13 - - 0.0
24/11:00pm - - - - - NNE 17 28 9 15 - - 0.0
24/10:30pm - - - - - NNE 19 28 10 15 - - 0.0
24/10:00pm - - - - - NNE 17 26 9 14 - - 0.0
24/09:30pm - - - - - NNE 15 22 8 12 - - 0.0
24/09:00pm - - - - - NNE 15 20 8 11 - - 0.0
24/08:30pm - - - - - NNE 15 20 8 11 - - 0.0
24/08:00pm - - - - - NNE 15 24 8 13 - - 0.0
24/07:30pm - - - - - NNE 13 22 7 12 - - 0.0
24/07:00pm - - - - - NNE 13 19 7 10 - - 0.0
24/06:30pm - - - - - NNE 11 15 6 8 - - 0.0
24/06:00pm - - - - - NE 11 13 6 7 - - 0.0
24/05:30pm - - - - - NE 9 11 5 6 - - 0.0
24/05:00pm - - - - - NNE 7 11 4 6 - - 0.0
24/04:30pm - - - - - NE 13 20 7 11 - - 0.0
24/04:00pm - - - - - NE 11 17 6 9 - - 0.0
24/03:30pm - - - - - N 11 20 6 11 - - 0.0
24/03:00pm - - - - - N 7 13 4 7 - - 0.0
24/02:30pm - - - - - NNW 9 17 5 9 - - 0.0
24/02:00pm - - - - - NNW 17 22 9 12 - - 0.0
24/01:30pm - - - - - N 13 28 7 15 - - 0.0
24/01:00pm - - - - - N 11 20 6 11 - - 0.0
24/12:30pm - - - - - NNE 15 24 8 13 - - 0.0
24/12:00pm - - - - - NNE 15 28 8 15 - - 0.0
24/11:30am - - - - - NNE 13 26 7 14 - - 0.0
24/11:00am - - - - - NNE 15 26 8 14 - - 0.0
24/10:30am - - - - - N 15 28 8 15 - - 0.0
24/10:00am - - - - - NNE 15 28 8 15 - - 0.0
24/09:30am - - - - - NNE 15 22 8 12 - - 0.0
24/09:00am - - - - - NNE 15 28 8 15 - - 0.0
24/08:30am - - - - - NNE 13 22 7 12 - - 0.0
24/08:00am - - - - - NE 13 24 7 13 - - 0.0
24/07:30am - - - - - NE 15 24 8 13 - - 0.0
24/07:00am - - - - - NE 15 26 8 14 - - 0.0
24/06:30am - - - - - NE 11 17 6 9 - - 0.0
24/06:00am - - - - - ENE 11 17 6 9 - - 0.0
24/05:30am - - - - - NE 13 20 7 11 - - 0.0
24/05:00am - - - - - NE 15 26 8 14 - - 0.0
24/04:30am - - - - - NE 13 20 7 11 - - 0.0
24/04:00am - - - - - NE 11 19 6 10 - - 0.0
24/03:30am - - - - - ENE 11 19 6 10 - - 0.0
24/03:00am - - - - - ENE 11 19 6 10 - - 0.0
24/02:30am - - - - - NE 13 30 7 16 - - 0.0
24/02:00am - - - - - NE 13 24 7 13 - - 0.0
24/01:30am - - - - - NE 13 24 7 13 - - 0.0
24/01:00am - - - - - NE 15 20 8 11 - - 0.0
24/12:30am - - - - - NE 11 17 6 9 - - 0.0
24/12:00am - - - - - NE 11 17 6 9 - - 0.0
 
Date/Time
EST
Temp
°C
App
Temp
°C
Dew
Point
Rel
Hum
%
Delta-T
°C
Wind Press
QNH
hPa
Press
MSL
hPa
Rain
since 9 am
mm
Dir
 
Spd
km/h
Gust
km/h
Spd
kts
Gust
kts
23/11:30pm - - - - - ENE 9 15 5 8 - - 0.0
23/11:00pm - - - - - E 11 15 6 8 - - 0.0
23/10:30pm - - - - - ENE 9 13 5 7 - - 0.0
23/10:00pm - - - - - ENE 7 11 4 6 - - 0.0
23/09:30pm - - - - - ENE 9 13 5 7 - - 0.0
23/09:00pm - - - - - ENE 9 11 5 6 - - 0.0
23/08:30pm - - - - - NE 11 17 6 9 - - 0.0
23/08:00pm - - - - - NE 9 13 5 7 - - 0.0
23/07:30pm - - - - - NE 9 11 5 6 - - 0.0
23/07:00pm - - - - - NE 7 13 4 7 - - 0.0
23/06:30pm - - - - - NE 7 9 4 5 - - 0.0
23/06:00pm - - - - - ENE 7 7 4 4 - - 0.0
23/05:30pm - - - - - E 7 9 4 5 - - 0.0
23/05:00pm - - - - - E 7 9 4 5 - - 0.0
23/04:30pm - - - - - CALM 0 0 0 0 - - 0.0
23/04:00pm - - - - - CALM 0 0 0 0 - - 0.0
23/03:30pm - - - - - E 4 7 2 4 - - 0.0
23/03:00pm - - - - - NE 2 6 1 3 - - 0.0
23/02:30pm - - - - - W 9 13 5 7 - - 0.0
23/02:00pm - - - - - SE 9 17 5 9 - - 0.0
23/01:30pm - - - - - NNE 6 9 3 5 - - 0.0
23/01:00pm - - - - - E 4 15 2 8 - - 0.0
23/12:30pm - - - - - N 7 15 4 8 - - 0.0
23/12:00pm - - - - - NE 9 15 5 8 - - 0.0
23/11:30am - - - - - ENE 9 15 5 8 - - 0.0
23/11:00am - - - - - NE 11 20 6 11 - - 0.0
23/10:30am - - - - - NNE 9 15 5 8 - - 0.0
23/10:00am - - - - - ENE 11 17 6 9 - - 0.0
23/09:30am - - - - - E 11 20 6 11 - - 0.0
23/09:00am - - - - - E 13 19 7 10 - - 0.0
23/08:30am - - - - - ENE 11 17 6 9 - - 0.0
23/08:00am - - - - - E 13 17 7 9 - - 0.0
23/07:30am - - - - - E 13 17 7 9 - - 0.0
23/07:00am - - - - - E 13 15 7 8 - - 0.0
23/06:30am - - - - - E 13 17 7 9 - - 0.0
23/06:00am - - - - - E 13 17 7 9 - - 0.0
23/05:30am - - - - - ENE 9 13 5 7 - - 0.0
23/05:00am - - - - - ENE 11 15 6 8 - - 0.0
23/04:30am - - - - - ENE 9 11 5 6 - - 0.0
23/04:00am - - - - - ENE 11 13 6 7 - - 0.0
23/03:30am - - - - - ENE 11 15 6 8 - - 0.0
23/03:00am - - - - - E 13 15 7 8 - - 0.0
23/02:30am - - - - - ENE 11 15 6 8 - - 0.0
23/02:00am - - - - - E 13 17 7 9 - - 0.0
23/01:30am - - - - - E 13 17 7 9 - - 0.0
23/01:00am - - - - - E 13 15 7 8 - - 0.0
23/12:30am - - - - - ENE 11 15 6 8 - - 0.0
23/12:00am - - - - - ENE 11 15 6 8 - - 0.0
 
Date/Time
EST
Temp
°C
App
Temp
°C
Dew
Point
Rel
Hum
%
Delta-T
°C
Wind Press
QNH
hPa
Press
MSL
hPa
Rain
since 9 am
mm
Dir
 
Spd
km/h
Gust
km/h
Spd
kts
Gust
kts
22/11:30pm - - - - - ENE 11 15 6 8 - - 0.0
22/11:00pm - - - - - ENE 11 17 6 9 - - 0.0
22/10:30pm - - - - - ENE 11 15 6 8 - - 0.0
22/10:00pm - - - - - ENE 13 17 7 9 - - 0.0
22/09:30pm - - - - - S 9 11 5 6 - - 0.0

Other Formats:

Comma delimited format used in spreadsheet applications
http://www.bom.gov.au/fwo/IDQ60801/IDQ60801.95573.axf

JavaScript Object Notation format (JSON) in row-major order
http://www.bom.gov.au/fwo/IDQ60801/IDQ60801.95573.json